Terminal Aerodrome Forecast
Issued by NWS

Current Version | Previous Version | Text Only | Print | Product List | Glossary On
Versions: 1 2 3 4 5 6 7 8 9 10 11 12
000
FTUS44 KEPZ 270500
TAFDMN
TAF
KDMN 270530Z 2706/2806 03007KT P6SM VCSH SCT060 BKN070 OVC200
      TEMPO 2707/2711 6SM -SHRA BKN040 OVC100
     FM271100 06007KT P6SM VCSH BKN050 BKN100 OVC200
     FM271900 22004KT P6SM SCT050 BKN100 BKN180
     FM280300 29005KT P6SM SCT050 BKN100 BKN180=

USA.gov is the U.S. government's official web portal to all federal, state and local government web resources and services.